createdAt,value
2023-05-17T00:09:34.357Z,10.92
2023-05-17T00:21:34.814Z,11.24
2023-05-17T00:33:35.273Z,11.16
2023-05-17T00:45:35.734Z,11.45
2023-05-17T00:57:36.156Z,11.12
2023-05-17T01:09:36.683Z,11.07
2023-05-17T01:21:37.086Z,11.14
2023-05-17T01:33:37.625Z,11.01
2023-05-17T01:45:37.982Z,11.03
2023-05-17T01:57:38.626Z,10.86
2023-05-17T02:09:38.901Z,10.90
2023-05-17T02:21:39.314Z,10.91
2023-05-17T02:33:39.844Z,10.79
2023-05-17T02:45:40.266Z,10.66
2023-05-17T02:57:40.731Z,10.77
2023-05-17T03:09:41.144Z,10.72
2023-05-17T03:21:41.620Z,10.73
2023-05-17T03:33:42.191Z,10.79
2023-05-17T03:45:42.487Z,10.77
2023-05-17T03:57:42.957Z,10.71
2023-05-17T04:09:43.516Z,10.69
2023-05-17T04:21:43.906Z,10.66
2023-05-17T04:33:44.344Z,10.65
2023-05-17T04:45:44.765Z,10.71
2023-05-17T04:57:45.242Z,10.70
2023-05-17T05:09:45.681Z,10.74
2023-05-17T05:21:46.121Z,10.79
2023-05-17T05:33:46.615Z,10.84
2023-05-17T05:45:47.022Z,10.89
2023-05-17T05:57:47.500Z,10.75
2023-05-17T06:09:47.953Z,10.71
2023-05-17T06:21:48.408Z,10.72
2023-05-17T06:33:48.934Z,10.60
2023-05-17T06:45:49.388Z,10.53
2023-05-17T06:57:49.812Z,10.41
2023-05-17T07:09:50.304Z,10.19
2023-05-17T07:21:50.715Z,10.08
2023-05-17T07:33:51.227Z,9.98
2023-05-17T07:45:51.633Z,9.97
2023-05-17T07:57:54.780Z,10.13
2023-05-17T08:09:52.516Z,10.18
2023-05-17T08:21:52.959Z,10.38
2023-05-17T08:33:53.408Z,10.51
2023-05-17T08:45:53.830Z,10.60
2023-05-17T08:57:54.289Z,10.62
2023-05-17T09:09:54.774Z,10.48
2023-05-17T09:21:55.207Z,10.20
2023-05-17T09:33:55.715Z,9.77
2023-05-17T09:45:56.177Z,9.83
2023-05-17T09:57:56.618Z,9.73
2023-05-17T10:09:57.008Z,9.72
2023-05-17T10:22:00.339Z,9.71
2023-05-17T10:33:57.963Z,9.52
2023-05-17T10:45:58.406Z,9.51
2023-05-17T10:57:58.798Z,9.51
2023-05-17T11:09:59.293Z,9.67
2023-05-17T11:21:59.691Z,9.56
2023-05-17T11:34:00.277Z,9.43
2023-05-17T11:46:00.730Z,9.16
2023-05-17T11:58:01.096Z,8.86
2023-05-17T12:10:01.586Z,8.91
2023-05-17T12:22:02.020Z,8.47
2023-05-17T12:34:02.865Z,8.29
2023-05-17T12:46:03.858Z,7.94
2023-05-17T12:58:03.349Z,7.94
2023-05-17T13:10:03.802Z,8.03
2023-05-17T13:22:04.255Z,8.06
2023-05-17T13:34:04.831Z,8.35
2023-05-17T13:46:05.185Z,8.37
2023-05-17T13:58:08.361Z,8.58
2023-05-17T14:10:06.046Z,8.50
2023-05-17T14:22:06.506Z,8.64
2023-05-17T14:34:07.052Z,8.63
2023-05-17T14:46:07.460Z,8.77
2023-05-17T14:58:07.916Z,9.12
2023-05-17T15:10:08.336Z,9.17
2023-05-17T15:22:08.793Z,9.27
2023-05-17T15:34:09.304Z,9.65
2023-05-17T15:46:09.678Z,9.50
2023-05-17T15:58:10.137Z,9.93
2023-05-17T16:10:10.598Z,10.27
2023-05-17T16:22:11.084Z,10.15
2023-05-17T16:34:11.534Z,9.83
2023-05-17T16:46:11.945Z,9.60
2023-05-17T16:58:12.411Z,9.45
2023-05-17T17:10:12.887Z,9.40
2023-05-17T17:22:13.311Z,9.28
2023-05-17T17:34:13.758Z,9.21
2023-05-17T17:46:14.232Z,9.34
2023-05-17T17:58:14.709Z,9.31
2023-05-17T18:10:15.138Z,9.23
2023-05-17T18:22:15.609Z,9.14
2023-05-17T18:34:16.035Z,9.18
2023-05-17T18:46:16.565Z,9.21
2023-05-17T18:58:16.936Z,9.17
2023-05-17T19:10:17.388Z,9.05
2023-05-17T19:22:17.866Z,9.18
2023-05-17T19:34:18.334Z,9.20
2023-05-17T19:46:18.805Z,9.19
2023-05-17T19:58:19.209Z,9.19
2023-05-17T20:10:19.722Z,9.18
2023-05-17T20:22:20.136Z,9.06
2023-05-17T20:34:20.583Z,9.12
2023-05-17T20:46:21.043Z,9.06
2023-05-17T20:58:21.473Z,9.04
2023-05-17T21:10:21.983Z,9.02
2023-05-17T21:22:22.358Z,8.99
2023-05-17T21:34:22.832Z,9.00
2023-05-17T21:46:23.299Z,9.06
2023-05-17T21:58:23.847Z,9.15
2023-05-17T22:10:24.216Z,9.04
2023-05-17T22:22:24.679Z,9.09
2023-05-17T22:34:25.091Z,9.12
2023-05-17T22:46:25.600Z,9.08
2023-05-17T22:58:26.096Z,9.06
2023-05-17T23:10:26.496Z,9.29
2023-05-17T23:22:26.892Z,9.35
2023-05-17T23:34:27.386Z,9.35
2023-05-17T23:46:27.826Z,9.20
2023-05-17T23:58:28.267Z,9.15
